PWSweather.com
Personal Weather Stations
Station Observations
K4FB1
Clubhouse Heritage, Lakeland, FL 33812

Clubhouse HeritageLakeland, FL 33812

Lat: 27.969224, Lon: -81.897769

Elevation: 145

Station Type: Davis Vantage Pro2

http://www.ClubhouseWX.com

Latest ConditionsUpdated 12:05:00 PM EST Monday, Jan 21, 2019
Currently Today's Max Today's Min Today's Average
Temperature 58.4°F14.7°C 58.4°F14.7°C 38.1°F3.4°C 43.4°F6.3°C
Dew Point 41.3°F5.2°C 41.7°F5.4°C 16.5°F-8.6°C 31.5°F-0.3°C
Winds 4.0 mph N6.4 kmh N 6.0 mph -9.7 kmh - - 3.5 mph 5.6 kmh
Wind Gusts 9.0 mph14.5 kmh 14.0 mph22.5 kmh - -
Humidity 53% 73% 41% 63%
Pressure 30.30 in1026.1 mb 30.31 in1026.4 mb 30.18 in1022.0 mb -
Hour Temp Dew Point Humidity Winds Wind Gusts Pressure Precip Precip Rate Daily Precip Total
12:05 PM 58.4°F14.7°C 41.3°F5.2°C 53% 4.0 mph N6.4 kmh N 9.0 mph14.5 kmh 30.30 in1026.1 mb 0.00 in0.0 mm 0.00 in0.0 mm 0.00 in0.0 mm
12:00 PM 58.1°F14.5°C 41.0°F5.0°C 53% 4.0 mph N6.4 kmh N 9.0 mph14.5 kmh 30.30 in1026.1 mb 0.00 in0.0 mm 0.00 in0.0 mm 0.00 in0.0 mm
11:55 AM 57.7°F14.3°C 41.2°F5.1°C 54% 4.0 mph N6.4 kmh N 9.0 mph14.5 kmh 30.30 in1026.1 mb 0.00 in0.0 mm 0.00 in0.0 mm 0.00 in0.0 mm
11:50 AM 57.3°F14.1°C 41.7°F5.4°C 56% 4.0 mph N6.4 kmh N 9.0 mph14.5 kmh 30.30 in1026.1 mb 0.00 in0.0 mm 0.00 in0.0 mm 0.00 in0.0 mm
11:45 AM 56.9°F13.8°C 41.4°F5.2°C 56% 4.0 mph N6.4 kmh N 8.0 mph12.9 kmh 30.30 in1026.1 mb 0.00 in0.0 mm 0.00 in0.0 mm 0.00 in0.0 mm
11:40 AM 56.2°F13.4°C 41.2°F5.1°C 57% 4.0 mph N6.4 kmh N 8.0 mph12.9 kmh 30.30 in1026.1 mb 0.00 in0.0 mm 0.00 in0.0 mm 0.00 in0.0 mm
11:35 AM 55.7°F13.2°C 40.7°F4.8°C 57% 5.0 mph N8.0 kmh N 8.0 mph12.9 kmh 30.30 in1026.1 mb 0.00 in0.0 mm 0.00 in0.0 mm 0.00 in0.0 mm
11:30 AM 55.3°F12.9°C 40.3°F4.6°C 57% 4.0 mph N6.4 kmh N 8.0 mph12.9 kmh 30.30 in1026.1 mb 0.00 in0.0 mm 0.00 in0.0 mm 0.00 in0.0 mm
11:25 AM 54.9°F12.7°C 40.8°F4.9°C 59% 4.0 mph N6.4 kmh N 8.0 mph12.9 kmh 30.30 in1026.1 mb 0.00 in0.0 mm 0.00 in0.0 mm 0.00 in0.0 mm
11:20 AM 54.6°F12.6°C 40.1°F4.5°C 58% 3.0 mph NNW4.8 kmh NNW 9.0 mph14.5 kmh 30.30 in1026.1 mb 0.00 in0.0 mm 0.00 in0.0 mm 0.00 in0.0 mm
11:15 AM 54.1°F12.3°C 40.1°F4.5°C 59% 4.0 mph NNW6.4 kmh NNW 9.0 mph14.5 kmh 30.31 in1026.4 mb 0.00 in0.0 mm 0.00 in0.0 mm 0.00 in0.0 mm
11:10 AM 53.7°F12.1°C 40.1°F4.5°C 60% 4.0 mph NNW6.4 kmh NNW 9.0 mph14.5 kmh 30.31 in1026.4 mb 0.00 in0.0 mm 0.00 in0.0 mm 0.00 in0.0 mm
11:05 AM 53.4°F11.9°C 39.9°F4.4°C 60% 3.0 mph N4.8 kmh N 6.0 mph9.7 kmh 30.31 in1026.4 mb 0.00 in0.0 mm 0.00 in0.0 mm 0.00 in0.0 mm
11:00 AM 52.8°F11.6°C 40.5°F4.7°C 63% 3.0 mph N4.8 kmh N 6.0 mph9.7 kmh 30.31 in1026.4 mb 0.00 in0.0 mm 0.00 in0.0 mm 0.00 in0.0 mm
10:55 AM 52.1°F11.2°C 39.5°F4.2°C 62% 3.0 mph N4.8 kmh N 7.0 mph11.3 kmh 30.31 in1026.4 mb 0.00 in0.0 mm 0.00 in0.0 mm 0.00 in0.0 mm
10:50 AM 51.3°F10.7°C 39.5°F4.2°C 64% 4.0 mph NNW6.4 kmh NNW 7.0 mph11.3 kmh 30.31 in1026.4 mb 0.00 in0.0 mm 0.00 in0.0 mm 0.00 in0.0 mm
10:45 AM 50.9°F10.5°C 39.9°F4.4°C 66% 4.0 mph NNW6.4 kmh NNW 7.0 mph11.3 kmh 30.31 in1026.4 mb 0.00 in0.0 mm 0.00 in0.0 mm 0.00 in0.0 mm
10:40 AM 50.5°F10.3°C 39.2°F4.0°C 65% 4.0 mph NNW6.4 kmh NNW 7.0 mph11.3 kmh 30.31 in1026.4 mb 0.00 in0.0 mm 0.00 in0.0 mm 0.00 in0.0 mm
10:35 AM 50.1°F10.1°C 39.2°F4.0°C 66% 3.0 mph NNW4.8 kmh NNW 6.0 mph9.7 kmh 30.31 in1026.4 mb 0.00 in0.0 mm 0.00 in0.0 mm 0.00 in0.0 mm
10:30 AM 49.7°F9.8°C 39.2°F4.0°C 67% 3.0 mph NNW4.8 kmh NNW 6.0 mph9.7 kmh 30.30 in1026.1 mb 0.00 in0.0 mm 0.00 in0.0 mm 0.00 in0.0 mm
10:25 AM 49.4°F9.7°C 38.5°F3.6°C 66% 3.0 mph N4.8 kmh N 6.0 mph9.7 kmh 30.30 in1026.1 mb 0.00 in0.0 mm 0.00 in0.0 mm 0.00 in0.0 mm
10:20 AM 49.2°F9.6°C 38.7°F3.7°C 67% 3.0 mph N4.8 kmh N 7.0 mph11.3 kmh 30.30 in1026.1 mb 0.00 in0.0 mm 0.00 in0.0 mm 0.00 in0.0 mm
10:15 AM 48.9°F9.4°C 38.4°F3.6°C 67% 3.0 mph N4.8 kmh N 7.0 mph11.3 kmh 30.30 in1026.1 mb 0.00 in0.0 mm 0.00 in0.0 mm 0.00 in0.0 mm
10:10 AM 48.5°F9.2°C 38.4°F3.6°C 68% 3.0 mph N4.8 kmh N 7.0 mph11.3 kmh 30.30 in1026.1 mb 0.00 in0.0 mm 0.00 in0.0 mm 0.00 in0.0 mm
10:05 AM 48.1°F8.9°C 38.0°F3.3°C 68% 4.0 mph NNE6.4 kmh NNE 8.0 mph12.9 kmh 30.30 in1026.1 mb 0.00 in0.0 mm 0.00 in0.0 mm 0.00 in0.0 mm
10:00 AM 47.8°F8.8°C 37.7°F3.2°C 68% 4.0 mph N6.4 kmh N 9.0 mph14.5 kmh 30.30 in1026.1 mb 0.00 in0.0 mm 0.00 in0.0 mm 0.00 in0.0 mm
09:55 AM 47.6°F8.7°C 38.3°F3.5°C 70% 3.0 mph N4.8 kmh N 9.0 mph14.5 kmh 30.30 in1026.1 mb 0.00 in0.0 mm 0.00 in0.0 mm 0.00 in0.0 mm
09:50 AM 47.0°F8.3°C 38.4°F3.6°C 72% 3.0 mph N4.8 kmh N 8.0 mph12.9 kmh 30.30 in1026.1 mb 0.00 in0.0 mm 0.00 in0.0 mm 0.00 in0.0 mm
09:45 AM 46.4°F8.0°C 37.9°F3.3°C 72% 3.0 mph N4.8 kmh N 8.0 mph12.9 kmh 30.29 in1025.7 mb 0.00 in0.0 mm 0.00 in0.0 mm 0.00 in0.0 mm
09:40 AM 45.9°F7.7°C 37.7°F3.2°C 73% 3.0 mph N4.8 kmh N 7.0 mph11.3 kmh 30.29 in1025.7 mb 0.00 in0.0 mm 0.00 in0.0 mm 0.00 in0.0 mm
09:35 AM 45.5°F7.5°C 37.3°F2.9°C 73% 3.0 mph N4.8 kmh N 7.0 mph11.3 kmh 30.29 in1025.7 mb 0.00 in0.0 mm 0.00 in0.0 mm 0.00 in0.0 mm
09:30 AM 45.1°F7.3°C 37.0°F2.8°C 73% 4.0 mph N6.4 kmh N 8.0 mph12.9 kmh 30.29 in1025.7 mb 0.00 in0.0 mm 0.00 in0.0 mm 0.00 in0.0 mm
09:25 AM 44.8°F7.1°C 36.7°F2.6°C 73% 4.0 mph N6.4 kmh N 9.0 mph14.5 kmh 30.29 in1025.7 mb 0.00 in0.0 mm 0.00 in0.0 mm 0.00 in0.0 mm
09:20 AM 44.5°F6.9°C 36.4°F2.4°C 73% 4.0 mph N6.4 kmh N 10.0 mph16.1 kmh 30.29 in1025.7 mb 0.00 in0.0 mm 0.00 in0.0 mm 0.00 in0.0 mm
09:15 AM 44.3°F6.8°C 36.2°F2.3°C 73% 4.0 mph N6.4 kmh N 10.0 mph16.1 kmh 30.29 in1025.7 mb 0.00 in0.0 mm 0.00 in0.0 mm 0.00 in0.0 mm
09:10 AM 44.0°F6.7°C 35.9°F2.2°C 73% 4.0 mph N6.4 kmh N 7.0 mph11.3 kmh 30.29 in1025.7 mb 0.00 in0.0 mm 0.00 in0.0 mm 0.00 in0.0 mm
09:05 AM 43.7°F6.5°C 35.3°F1.8°C 72% 3.0 mph N4.8 kmh N 7.0 mph11.3 kmh 30.28 in1025.4 mb 0.00 in0.0 mm 0.00 in0.0 mm 0.00 in0.0 mm
09:00 AM 43.5°F6.4°C 34.7°F1.5°C 71% 2.0 mph N3.2 kmh N 7.0 mph11.3 kmh 30.28 in1025.4 mb 0.00 in0.0 mm 0.00 in0.0 mm 0.00 in0.0 mm
08:55 AM 43.1°F6.2°C 33.6°F0.9°C 69% 3.0 mph N4.8 kmh N 7.0 mph11.3 kmh 30.28 in1025.4 mb 0.00 in0.0 mm 0.00 in0.0 mm 0.00 in0.0 mm
08:50 AM 42.7°F5.9°C 32.9°F0.5°C 68% 3.0 mph N4.8 kmh N 7.0 mph11.3 kmh 30.28 in1025.4 mb 0.00 in0.0 mm 0.00 in0.0 mm 0.00 in0.0 mm
08:45 AM 42.4°F5.8°C 31.8°F-0.1°C 66% 3.0 mph N4.8 kmh N 7.0 mph11.3 kmh 30.28 in1025.4 mb 0.00 in0.0 mm 0.00 in0.0 mm 0.00 in0.0 mm
08:40 AM 41.7°F5.4°C 29.6°F-1.3°C 62% 3.0 mph N4.8 kmh N 7.0 mph11.3 kmh 30.28 in1025.4 mb 0.00 in0.0 mm 0.00 in0.0 mm 0.00 in0.0 mm
08:35 AM 41.3°F5.2°C 28.4°F-2.0°C 60% 3.0 mph N4.8 kmh N 7.0 mph11.3 kmh 30.27 in1025.1 mb 0.00 in0.0 mm 0.00 in0.0 mm 0.00 in0.0 mm
08:30 AM 40.6°F4.8°C 26.1°F-3.3°C 56% 3.0 mph N4.8 kmh N 7.0 mph11.3 kmh 30.27 in1025.1 mb 0.00 in0.0 mm 0.00 in0.0 mm 0.00 in0.0 mm
08:25 AM 40.0°F4.4°C 23.3°F-4.8°C 51% 3.0 mph N4.8 kmh N 7.0 mph11.3 kmh 30.27 in1025.1 mb 0.00 in0.0 mm 0.00 in0.0 mm 0.00 in0.0 mm
08:20 AM 39.4°F4.1°C 21.3°F-5.9°C 48% 3.0 mph N4.8 kmh N 6.0 mph9.7 kmh 30.27 in1025.1 mb 0.00 in0.0 mm 0.00 in0.0 mm 0.00 in0.0 mm
08:15 AM 39.0°F3.9°C 18.9°F-7.3°C 44% 3.0 mph N4.8 kmh N 6.0 mph9.7 kmh 30.28 in1025.4 mb 0.00 in0.0 mm 0.00 in0.0 mm 0.00 in0.0 mm
08:10 AM 38.7°F3.7°C 17.5°F-8.1°C 42% 2.0 mph N3.2 kmh N 6.0 mph9.7 kmh 30.27 in1025.1 mb 0.00 in0.0 mm 0.00 in0.0 mm 0.00 in0.0 mm
08:05 AM 38.4°F3.6°C 16.7°F-8.5°C 41% 2.0 mph N3.2 kmh N 4.0 mph6.4 kmh 30.27 in1025.1 mb 0.00 in0.0 mm 0.00 in0.0 mm 0.00 in0.0 mm
08:00 AM 38.2°F3.4°C 16.5°F-8.6°C 41% 2.0 mph NNW3.2 kmh NNW 4.0 mph6.4 kmh 30.27 in1025.1 mb 0.00 in0.0 mm 0.00 in0.0 mm 0.00 in0.0 mm
07:55 AM 38.2°F3.4°C 17.6°F-8.0°C 43% 2.0 mph N3.2 kmh N 5.0 mph8.0 kmh 30.27 in1025.1 mb 0.00 in0.0 mm 0.00 in0.0 mm 0.00 in0.0 mm
07:50 AM 38.1°F3.4°C 19.1°F-7.2°C 46% 2.0 mph N3.2 kmh N 5.0 mph8.0 kmh 30.27 in1025.1 mb 0.00 in0.0 mm 0.00 in0.0 mm 0.00 in0.0 mm
07:45 AM 38.2°F3.4°C 20.2°F-6.6°C 48% 2.0 mph N3.2 kmh N 7.0 mph11.3 kmh 30.26 in1024.7 mb 0.00 in0.0 mm 0.00 in0.0 mm 0.00 in0.0 mm
07:40 AM 38.2°F3.4°C 20.7°F-6.3°C 49% 3.0 mph N4.8 kmh N 7.0 mph11.3 kmh 30.26 in1024.7 mb 0.00 in0.0 mm 0.00 in0.0 mm 0.00 in0.0 mm
07:35 AM 38.2°F3.4°C 21.6°F-5.8°C 51% 4.0 mph N6.4 kmh N 8.0 mph12.9 kmh 30.26 in1024.7 mb 0.00 in0.0 mm 0.00 in0.0 mm 0.00 in0.0 mm
07:30 AM 38.3°F3.5°C 22.6°F-5.2°C 53% 4.0 mph NNW6.4 kmh NNW 9.0 mph14.5 kmh 30.26 in1024.7 mb 0.00 in0.0 mm 0.00 in0.0 mm 0.00 in0.0 mm
07:25 AM 38.4°F3.6°C 23.2°F-4.9°C 54% 4.0 mph NNW6.4 kmh NNW 9.0 mph14.5 kmh 30.25 in1024.4 mb 0.00 in0.0 mm 0.00 in0.0 mm 0.00 in0.0 mm
07:20 AM 38.5°F3.6°C 23.7°F-4.6°C 55% 4.0 mph N6.4 kmh N 9.0 mph14.5 kmh 30.25 in1024.4 mb 0.00 in0.0 mm 0.00 in0.0 mm 0.00 in0.0 mm
07:15 AM 38.6°F3.7°C 24.2°F-4.3°C 56% 4.0 mph N6.4 kmh N 9.0 mph14.5 kmh 30.25 in1024.4 mb 0.00 in0.0 mm 0.00 in0.0 mm 0.00 in0.0 mm
07:10 AM 38.6°F3.7°C 24.2°F-4.3°C 56% 4.0 mph N6.4 kmh N 10.0 mph16.1 kmh 30.25 in1024.4 mb 0.00 in0.0 mm 0.00 in0.0 mm 0.00 in0.0 mm
07:05 AM 38.7°F3.7°C 24.8°F-4.0°C 57% 3.0 mph N4.8 kmh N 10.0 mph16.1 kmh 30.25 in1024.4 mb 0.00 in0.0 mm 0.00 in0.0 mm 0.00 in0.0 mm
07:00 AM 38.7°F3.7°C 24.8°F-4.0°C 57% 3.0 mph N4.8 kmh N 9.0 mph14.5 kmh 30.25 in1024.4 mb 0.00 in0.0 mm 0.00 in0.0 mm 0.00 in0.0 mm
06:55 AM 38.8°F3.8°C 24.9°F-3.9°C 57% 3.0 mph N4.8 kmh N 7.0 mph11.3 kmh 30.25 in1024.4 mb 0.00 in0.0 mm 0.00 in0.0 mm 0.00 in0.0 mm
06:50 AM 38.8°F3.8°C 24.9°F-3.9°C 57% 3.0 mph N4.8 kmh N 7.0 mph11.3 kmh 30.25 in1024.4 mb 0.00 in0.0 mm 0.00 in0.0 mm 0.00 in0.0 mm
06:45 AM 38.9°F3.8°C 25.8°F-3.4°C 59% 3.0 mph N4.8 kmh N 8.0 mph12.9 kmh 30.25 in1024.4 mb 0.00 in0.0 mm 0.00 in0.0 mm 0.00 in0.0 mm
06:40 AM 38.9°F3.8°C 25.4°F-3.7°C 58% 4.0 mph NNW6.4 kmh NNW 8.0 mph12.9 kmh 30.24 in1024.0 mb 0.00 in0.0 mm 0.00 in0.0 mm 0.00 in0.0 mm
06:35 AM 38.9°F3.8°C 25.4°F-3.7°C 58% 4.0 mph NNW6.4 kmh NNW 7.0 mph11.3 kmh 30.24 in1024.0 mb 0.00 in0.0 mm 0.00 in0.0 mm 0.00 in0.0 mm
06:30 AM 38.9°F3.8°C 25.8°F-3.4°C 59% 4.0 mph N6.4 kmh N 7.0 mph11.3 kmh 30.23 in1023.7 mb 0.00 in0.0 mm 0.00 in0.0 mm 0.00 in0.0 mm
06:25 AM 38.9°F3.8°C 25.4°F-3.7°C 58% 3.0 mph NNW4.8 kmh NNW 7.0 mph11.3 kmh 30.23 in1023.7 mb 0.00 in0.0 mm 0.00 in0.0 mm 0.00 in0.0 mm
06:20 AM 39.0°F3.9°C 25.5°F-3.6°C 58% 3.0 mph NNW4.8 kmh NNW 7.0 mph11.3 kmh 30.23 in1023.7 mb 0.00 in0.0 mm 0.00 in0.0 mm 0.00 in0.0 mm
06:15 AM 39.1°F3.9°C 26.0°F-3.3°C 59% 3.0 mph NNW4.8 kmh NNW 7.0 mph11.3 kmh 30.23 in1023.7 mb 0.00 in0.0 mm 0.00 in0.0 mm 0.00 in0.0 mm
06:10 AM 39.1°F3.9°C 25.6°F-3.6°C 58% 3.0 mph N4.8 kmh N 7.0 mph11.3 kmh 30.23 in1023.7 mb 0.00 in0.0 mm 0.00 in0.0 mm 0.00 in0.0 mm
06:05 AM 39.1°F3.9°C 25.6°F-3.6°C 58% 3.0 mph N4.8 kmh N 7.0 mph11.3 kmh 30.23 in1023.7 mb 0.00 in0.0 mm 0.00 in0.0 mm 0.00 in0.0 mm
06:00 AM 39.2°F4.0°C 26.1°F-3.3°C 59% 2.0 mph NNW3.2 kmh NNW 7.0 mph11.3 kmh 30.22 in1023.4 mb 0.00 in0.0 mm 0.00 in0.0 mm 0.00 in0.0 mm
05:55 AM 39.3°F4.1°C 26.6°F-3.0°C 60% 2.0 mph NNW3.2 kmh NNW 6.0 mph9.7 kmh 30.22 in1023.4 mb 0.00 in0.0 mm 0.00 in0.0 mm 0.00 in0.0 mm
05:50 AM 39.4°F4.1°C 26.7°F-2.9°C 60% 2.0 mph NNW3.2 kmh NNW 7.0 mph11.3 kmh 30.22 in1023.4 mb 0.00 in0.0 mm 0.00 in0.0 mm 0.00 in0.0 mm
05:45 AM 39.4°F4.1°C 27.1°F-2.7°C 61% 3.0 mph NNW4.8 kmh NNW 7.0 mph11.3 kmh 30.22 in1023.4 mb 0.00 in0.0 mm 0.00 in0.0 mm 0.00 in0.0 mm
05:40 AM 39.4°F4.1°C 27.1°F-2.7°C 61% 3.0 mph NNW4.8 kmh NNW 7.0 mph11.3 kmh 30.22 in1023.4 mb 0.00 in0.0 mm 0.00 in0.0 mm 0.00 in0.0 mm
05:35 AM 39.5°F4.2°C 27.2°F-2.7°C 61% 3.0 mph NNW4.8 kmh NNW 7.0 mph11.3 kmh 30.22 in1023.4 mb 0.00 in0.0 mm 0.00 in0.0 mm 0.00 in0.0 mm
05:30 AM 39.5°F4.2°C 27.2°F-2.7°C 61% 4.0 mph NNW6.4 kmh NNW 7.0 mph11.3 kmh 30.22 in1023.4 mb 0.00 in0.0 mm 0.00 in0.0 mm 0.00 in0.0 mm
05:25 AM 39.4°F4.1°C 27.5°F-2.5°C 62% 3.0 mph NNW4.8 kmh NNW 7.0 mph11.3 kmh 30.22 in1023.4 mb 0.00 in0.0 mm 0.00 in0.0 mm 0.00 in0.0 mm
05:20 AM 39.5°F4.2°C 27.5°F-2.5°C 62% 2.0 mph NNW3.2 kmh NNW 6.0 mph9.7 kmh 30.22 in1023.4 mb 0.00 in0.0 mm 0.00 in0.0 mm 0.00 in0.0 mm
05:15 AM 39.6°F4.2°C 27.6°F-2.4°C 62% 3.0 mph NNW4.8 kmh NNW 6.0 mph9.7 kmh 30.22 in1023.4 mb 0.00 in0.0 mm 0.00 in0.0 mm 0.00 in0.0 mm
05:10 AM 39.7°F4.3°C 28.1°F-2.2°C 63% 2.0 mph NNW3.2 kmh NNW 5.0 mph8.0 kmh 30.22 in1023.4 mb 0.00 in0.0 mm 0.00 in0.0 mm 0.00 in0.0 mm
05:05 AM 39.8°F4.3°C 28.6°F-1.9°C 64% 2.0 mph NNW3.2 kmh NNW 5.0 mph8.0 kmh 30.21 in1023.0 mb 0.00 in0.0 mm 0.00 in0.0 mm 0.00 in0.0 mm
05:00 AM 39.9°F4.4°C 28.7°F-1.8°C 64% 3.0 mph NNW4.8 kmh NNW 6.0 mph9.7 kmh 30.22 in1023.4 mb 0.00 in0.0 mm 0.00 in0.0 mm 0.00 in0.0 mm
04:55 AM 39.9°F4.4°C 29.1°F-1.6°C 65% 3.0 mph NNW4.8 kmh NNW 8.0 mph12.9 kmh 30.21 in1023.0 mb 0.00 in0.0 mm 0.00 in0.0 mm 0.00 in0.0 mm
04:50 AM 40.0°F4.4°C 29.6°F-1.3°C 66% 2.0 mph NNW3.2 kmh NNW 8.0 mph12.9 kmh 30.21 in1023.0 mb 0.00 in0.0 mm 0.00 in0.0 mm 0.00 in0.0 mm
04:45 AM 40.1°F4.5°C 29.6°F-1.3°C 66% 3.0 mph NNW4.8 kmh NNW 6.0 mph9.7 kmh 30.21 in1023.0 mb 0.00 in0.0 mm 0.00 in0.0 mm 0.00 in0.0 mm
04:40 AM 40.2°F4.6°C 29.7°F-1.3°C 66% 4.0 mph NNW6.4 kmh NNW 8.0 mph12.9 kmh 30.21 in1023.0 mb 0.00 in0.0 mm 0.00 in0.0 mm 0.00 in0.0 mm
04:35 AM 40.2°F4.6°C 29.7°F-1.3°C 66% 4.0 mph NNW6.4 kmh NNW 8.0 mph12.9 kmh 30.21 in1023.0 mb 0.00 in0.0 mm 0.00 in0.0 mm 0.00 in0.0 mm
04:30 AM 40.1°F4.5°C 29.6°F-1.3°C 66% 4.0 mph NNW6.4 kmh NNW 8.0 mph12.9 kmh 30.22 in1023.4 mb 0.00 in0.0 mm 0.00 in0.0 mm 0.00 in0.0 mm
04:25 AM 40.0°F4.4°C 29.2°F-1.6°C 65% 4.0 mph NNW6.4 kmh NNW 10.0 mph16.1 kmh 30.22 in1023.4 mb 0.00 in0.0 mm 0.00 in0.0 mm 0.00 in0.0 mm
04:20 AM 40.0°F4.4°C 28.8°F-1.8°C 64% 3.0 mph NW4.8 kmh NW 10.0 mph16.1 kmh 30.21 in1023.0 mb 0.00 in0.0 mm 0.00 in0.0 mm 0.00 in0.0 mm
04:15 AM 40.0°F4.4°C 29.2°F-1.6°C 65% 2.0 mph NW3.2 kmh NW 5.0 mph8.0 kmh 30.22 in1023.4 mb 0.00 in0.0 mm 0.00 in0.0 mm 0.00 in0.0 mm
04:10 AM 40.1°F4.5°C 29.6°F-1.3°C 66% 2.0 mph NW3.2 kmh NW 7.0 mph11.3 kmh 30.21 in1023.0 mb 0.00 in0.0 mm 0.00 in0.0 mm 0.00 in0.0 mm
04:05 AM 40.2°F4.6°C 30.1°F-1.1°C 67% 3.0 mph NW4.8 kmh NW 7.0 mph11.3 kmh 30.21 in1023.0 mb 0.00 in0.0 mm 0.00 in0.0 mm 0.00 in0.0 mm
04:00 AM 40.3°F4.6°C 30.2°F-1.0°C 67% 3.0 mph NW4.8 kmh NW 6.0 mph9.7 kmh 30.21 in1023.0 mb 0.00 in0.0 mm 0.00 in0.0 mm 0.00 in0.0 mm
03:55 AM 40.4°F4.7°C 30.7°F-0.7°C 68% 3.0 mph NW4.8 kmh NW 9.0 mph14.5 kmh 30.21 in1023.0 mb 0.00 in0.0 mm 0.00 in0.0 mm 0.00 in0.0 mm
03:50 AM 40.5°F4.7°C 31.1°F-0.5°C 69% 4.0 mph NW6.4 kmh NW 9.0 mph14.5 kmh 30.21 in1023.0 mb 0.00 in0.0 mm 0.00 in0.0 mm 0.00 in0.0 mm
03:45 AM 40.6°F4.8°C 31.2°F-0.4°C 69% 4.0 mph NW6.4 kmh NW 10.0 mph16.1 kmh 30.21 in1023.0 mb 0.00 in0.0 mm 0.00 in0.0 mm 0.00 in0.0 mm
03:40 AM 40.6°F4.8°C 31.2°F-0.4°C 69% 4.0 mph NW6.4 kmh NW 10.0 mph16.1 kmh 30.21 in1023.0 mb 0.00 in0.0 mm 0.00 in0.0 mm 0.00 in0.0 mm
03:35 AM 40.7°F4.8°C 31.3°F-0.4°C 69% 4.0 mph NW6.4 kmh NW 10.0 mph16.1 kmh 30.21 in1023.0 mb 0.00 in0.0 mm 0.00 in0.0 mm 0.00 in0.0 mm
03:30 AM 40.7°F4.8°C 31.3°F-0.4°C 69% 4.0 mph NW6.4 kmh NW 10.0 mph16.1 kmh 30.21 in1023.0 mb 0.00 in0.0 mm 0.00 in0.0 mm 0.00 in0.0 mm
03:25 AM 40.7°F4.8°C 31.3°F-0.4°C 69% 4.0 mph NW6.4 kmh NW 7.0 mph11.3 kmh 30.21 in1023.0 mb 0.00 in0.0 mm 0.00 in0.0 mm 0.00 in0.0 mm
03:20 AM 40.8°F4.9°C 31.4°F-0.3°C 69% 4.0 mph NW6.4 kmh NW 9.0 mph14.5 kmh 30.21 in1023.0 mb 0.00 in0.0 mm 0.00 in0.0 mm 0.00 in0.0 mm
03:15 AM 40.9°F4.9°C 31.9°F-0.1°C 70% 4.0 mph NW6.4 kmh NW 9.0 mph14.5 kmh 30.21 in1023.0 mb 0.00 in0.0 mm 0.00 in0.0 mm 0.00 in0.0 mm
03:10 AM 41.0°F5.0°C 31.6°F-0.2°C 69% 4.0 mph NW6.4 kmh NW 9.0 mph14.5 kmh 30.20 in1022.7 mb 0.00 in0.0 mm 0.00 in0.0 mm 0.00 in0.0 mm
03:05 AM 41.1°F5.1°C 31.7°F-0.2°C 69% 4.0 mph NW6.4 kmh NW 9.0 mph14.5 kmh 30.20 in1022.7 mb 0.00 in0.0 mm 0.00 in0.0 mm 0.00 in0.0 mm
03:00 AM 41.1°F5.1°C 31.7°F-0.2°C 69% 4.0 mph NW6.4 kmh NW 8.0 mph12.9 kmh 30.21 in1023.0 mb 0.00 in0.0 mm 0.00 in0.0 mm 0.00 in0.0 mm
02:55 AM 41.3°F5.2°C 31.9°F-0.1°C 69% 4.0 mph NW6.4 kmh NW 9.0 mph14.5 kmh 30.20 in1022.7 mb 0.00 in0.0 mm 0.00 in0.0 mm 0.00 in0.0 mm
02:50 AM 41.4°F5.2°C 32.0°F0.0°C 69% 4.0 mph NW6.4 kmh NW 9.0 mph14.5 kmh 30.21 in1023.0 mb 0.00 in0.0 mm 0.00 in0.0 mm 0.00 in0.0 mm
02:45 AM 41.5°F5.3°C 32.1°F0.1°C 69% 4.0 mph NW6.4 kmh NW 9.0 mph14.5 kmh 30.20 in1022.7 mb 0.00 in0.0 mm 0.00 in0.0 mm 0.00 in0.0 mm
02:40 AM 41.6°F5.3°C 32.2°F0.1°C 69% 4.0 mph NW6.4 kmh NW 8.0 mph12.9 kmh 30.20 in1022.7 mb 0.00 in0.0 mm 0.00 in0.0 mm 0.00 in0.0 mm
02:35 AM 41.7°F5.4°C 32.3°F0.2°C 69% 5.0 mph NW8.0 kmh NW 12.0 mph19.3 kmh 30.21 in1023.0 mb 0.00 in0.0 mm 0.00 in0.0 mm 0.00 in0.0 mm
02:30 AM 41.8°F5.4°C 32.4°F0.2°C 69% 5.0 mph NW8.0 kmh NW 12.0 mph19.3 kmh 30.21 in1023.0 mb 0.00 in0.0 mm 0.00 in0.0 mm 0.00 in0.0 mm
02:25 AM 41.9°F5.5°C 32.5°F0.3°C 69% 5.0 mph NW8.0 kmh NW 14.0 mph22.5 kmh 30.21 in1023.0 mb 0.00 in0.0 mm 0.00 in0.0 mm 0.00 in0.0 mm
02:20 AM 42.0°F5.6°C 32.9°F0.5°C 70% 5.0 mph NW8.0 kmh NW 14.0 mph22.5 kmh 30.21 in1023.0 mb 0.00 in0.0 mm 0.00 in0.0 mm 0.00 in0.0 mm
02:15 AM 42.0°F5.6°C 32.6°F0.3°C 69% 5.0 mph NW8.0 kmh NW 11.0 mph17.7 kmh 30.21 in1023.0 mb 0.00 in0.0 mm 0.00 in0.0 mm 0.00 in0.0 mm
02:10 AM 42.1°F5.6°C 32.7°F0.4°C 69% 5.0 mph NW8.0 kmh NW 11.0 mph17.7 kmh 30.21 in1023.0 mb 0.00 in0.0 mm 0.00 in0.0 mm 0.00 in0.0 mm
02:05 AM 42.2°F5.7°C 32.8°F0.4°C 69% 5.0 mph NW8.0 kmh NW 9.0 mph14.5 kmh 30.20 in1022.7 mb 0.00 in0.0 mm 0.00 in0.0 mm 0.00 in0.0 mm
02:00 AM 42.3°F5.7°C 32.8°F0.4°C 69% 5.0 mph NW8.0 kmh NW 9.0 mph14.5 kmh 30.20 in1022.7 mb 0.00 in0.0 mm 0.00 in0.0 mm 0.00 in0.0 mm
01:55 AM 42.3°F5.7°C 32.5°F0.3°C 68% 5.0 mph NW8.0 kmh NW 10.0 mph16.1 kmh 30.21 in1023.0 mb 0.00 in0.0 mm 0.00 in0.0 mm 0.00 in0.0 mm
01:50 AM 42.5°F5.8°C 32.3°F0.2°C 67% 4.0 mph NW6.4 kmh NW 10.0 mph16.1 kmh 30.21 in1023.0 mb 0.00 in0.0 mm 0.00 in0.0 mm 0.00 in0.0 mm
01:45 AM 42.5°F5.8°C 32.3°F0.2°C 67% 4.0 mph NW6.4 kmh NW 8.0 mph12.9 kmh 30.21 in1023.0 mb 0.00 in0.0 mm 0.00 in0.0 mm 0.00 in0.0 mm
01:40 AM 42.7°F5.9°C 32.1°F0.1°C 66% 4.0 mph NW6.4 kmh NW 9.0 mph14.5 kmh 30.20 in1022.7 mb 0.00 in0.0 mm 0.00 in0.0 mm 0.00 in0.0 mm
01:35 AM 42.8°F6.0°C 32.2°F0.1°C 66% 4.0 mph NW6.4 kmh NW 9.0 mph14.5 kmh 30.20 in1022.7 mb 0.00 in0.0 mm 0.00 in0.0 mm 0.00 in0.0 mm
01:30 AM 42.9°F6.1°C 31.9°F-0.1°C 65% 4.0 mph NW6.4 kmh NW 8.0 mph12.9 kmh 30.20 in1022.7 mb 0.00 in0.0 mm 0.00 in0.0 mm 0.00 in0.0 mm
01:25 AM 43.1°F6.2°C 31.7°F-0.2°C 64% 4.0 mph NW6.4 kmh NW 8.0 mph12.9 kmh 30.20 in1022.7 mb 0.00 in0.0 mm 0.00 in0.0 mm 0.00 in0.0 mm
01:20 AM 43.1°F6.2°C 32.1°F0.1°C 65% 4.0 mph NW6.4 kmh NW 8.0 mph12.9 kmh 30.20 in1022.7 mb 0.00 in0.0 mm 0.00 in0.0 mm 0.00 in0.0 mm
01:15 AM 43.1°F6.2°C 32.9°F0.5°C 67% 3.0 mph NW4.8 kmh NW 6.0 mph9.7 kmh 30.19 in1022.4 mb 0.00 in0.0 mm 0.00 in0.0 mm 0.00 in0.0 mm
01:10 AM 43.3°F6.3°C 33.4°F0.8°C 68% 3.0 mph NNW4.8 kmh NNW 9.0 mph14.5 kmh 30.19 in1022.4 mb 0.00 in0.0 mm 0.00 in0.0 mm 0.00 in0.0 mm
01:05 AM 43.4°F6.3°C 33.5°F0.8°C 68% 4.0 mph NNW6.4 kmh NNW 9.0 mph14.5 kmh 30.18 in1022.0 mb 0.00 in0.0 mm 0.00 in0.0 mm 0.00 in0.0 mm
01:00 AM 43.5°F6.4°C 33.6°F0.9°C 68% 3.0 mph NNW4.8 kmh NNW 9.0 mph14.5 kmh 30.18 in1022.0 mb 0.00 in0.0 mm 0.00 in0.0 mm 0.00 in0.0 mm
12:55 AM 43.7°F6.5°C 33.5°F0.8°C 67% 3.0 mph NNW4.8 kmh NNW 7.0 mph11.3 kmh 30.18 in1022.0 mb 0.00 in0.0 mm 0.00 in0.0 mm 0.00 in0.0 mm
12:50 AM 43.9°F6.6°C 34.0°F1.1°C 68% 3.0 mph NNW4.8 kmh NNW 8.0 mph12.9 kmh 30.19 in1022.4 mb 0.00 in0.0 mm 0.00 in0.0 mm 0.00 in0.0 mm
12:45 AM 44.0°F6.7°C 34.1°F1.2°C 68% 4.0 mph NNW6.4 kmh NNW 8.0 mph12.9 kmh 30.19 in1022.4 mb 0.00 in0.0 mm 0.00 in0.0 mm 0.00 in0.0 mm
12:40 AM 44.2°F6.8°C 34.3°F1.3°C 68% 4.0 mph NNW6.4 kmh NNW 11.0 mph17.7 kmh 30.18 in1022.0 mb 0.00 in0.0 mm 0.00 in0.0 mm 0.00 in0.0 mm
12:35 AM 44.4°F6.9°C 34.9°F1.6°C 69% 5.0 mph NW8.0 kmh NW 11.0 mph17.7 kmh 30.18 in1022.0 mb 0.00 in0.0 mm 0.00 in0.0 mm 0.00 in0.0 mm
12:30 AM 44.5°F6.9°C 35.0°F1.7°C 69% 5.0 mph NW8.0 kmh NW 11.0 mph17.7 kmh 30.18 in1022.0 mb 0.00 in0.0 mm 0.00 in0.0 mm 0.00 in0.0 mm
12:25 AM 44.7°F7.1°C 34.4°F1.3°C 67% 4.0 mph NW6.4 kmh NW 9.0 mph14.5 kmh 30.18 in1022.0 mb 0.00 in0.0 mm 0.00 in0.0 mm 0.00 in0.0 mm
12:20 AM 45.0°F7.2°C 33.9°F1.1°C 65% 3.0 mph NW4.8 kmh NW 8.0 mph12.9 kmh 30.18 in1022.0 mb 0.00 in0.0 mm 0.00 in0.0 mm 0.00 in0.0 mm
12:15 AM 45.2°F7.3°C 34.1°F1.2°C 65% 4.0 mph NW6.4 kmh NW 9.0 mph14.5 kmh 30.18 in1022.0 mb 0.00 in0.0 mm 0.00 in0.0 mm 0.00 in0.0 mm
12:10 AM 45.4°F7.4°C 34.7°F1.5°C 66% 5.0 mph NW8.0 kmh NW 11.0 mph17.7 kmh 30.18 in1022.0 mb 0.00 in0.0 mm 0.00 in0.0 mm 0.00 in0.0 mm
12:05 AM 45.6°F7.6°C 34.5°F1.4°C 65% 5.0 mph NW8.0 kmh NW 11.0 mph17.7 kmh 30.18 in1022.0 mb 0.00 in0.0 mm 0.00 in0.0 mm 0.00 in0.0 mm
12:00 AM 45.8°F7.7°C 33.5°F0.8°C 62% 6.0 mph NW9.7 kmh NW 14.0 mph22.5 kmh 30.18 in1022.0 mb 0.00 in0.0 mm 0.00 in0.0 mm 0.00 in0.0 mm